KDAN/DAN METAR and TAF weather

Enter ICAO airport designator
Station Type Date Time Source
KDAN METAR 2019/08/21 02:53 UTC NOAA

KDAN 210253Z AUTO 21003KT 10SM CLR 25/23 A3009 RMK AO2 SLP177 T02500228 51006


Station Type Date Time Source
KDAN Decoded METAR 2019/08/21 02:53 UTC NOAA

Station name not available
Aug 20, 2019 - 10:53 PM EDT / 2019.08.21 0253 UTC
Wind: from the SSW (210 degrees) at 3 MPH (3 KT):0
Visibility: 10 mile(s):0
Sky conditions: clear
Temperature: 77.0 F (25.0 C)
Dew Point: 73.0 F (22.8 C)
Relative Humidity: 87%
Pressure (altimeter): 30.09 in. Hg (1018 hPa)
Pressure tendency: 0.02 inches (0.6 hPa) higher than three hours ago
ob: KDAN 210253Z AUTO 21003KT 10SM CLR 25/23 A3009 RMK AO2 SLP177 T02500228 51006
cycle: 3

Station Type Date Time Source
KDAN TAF 2019/08/20 20:42 UTC NOAA

TAF
AMD KDAN 201940Z 2020/2118 25007KT P6SM VCTS BKN060CB
TEMPO 2021/2023 VRB15G30KT 3SM TSRA SCT018 BKN035CB
FM210000 21005KT P6SM VCTS BKN050CB
FM210500 VRB02KT P6SM VCSH SCT050
FM211200 23005KT P6SM SCT012 BKN035
FM211500 23007KT P6SM BKN028
FM211700 24009KT P6SM SCT070

Example: see airport list